Time;durP1;ratioP1;P1;durP2;ratioP2;P2;SDS_P1;SDS_P2;PMS_P1;PMS_P2;Temp;Humidity;BMP_temperature;BMP_pressure;BME280_temperature;BME280_humidity;BME280_pressure;Samples;Min_cycle;Max_cycle;Signal;HPM_P1;HPM_P2
2024/02/04 00:00:35;;;;;;;20.73;2.90;;;6.80;99.90;;;;;;4998288;28;20392;-62
2024/02/04 00:03:00;;;;;;;16.67;2.65;;;6.90;99.90;;;;;;4998643;28;20045;-62
2024/02/04 00:05:26;;;;;;;21.20;3.40;;;6.90;99.90;;;;;;5001801;28;20046;-62
2024/02/04 00:07:52;;;;;;;12.88;2.55;;;6.80;99.90;;;;;;5002641;28;20060;-61
2024/02/04 00:10:18;;;;;;;11.50;2.33;;;6.80;99.90;;;;;;5001041;28;20046;-62
2024/02/04 00:12:44;;;;;;;17.52;2.97;;;6.70;99.90;;;;;;5004458;28;20088;-62
2024/02/04 00:15:10;;;;;;;14.98;2.28;;;6.70;99.90;;;;;;5003295;28;20045;-62
2024/02/04 00:17:36;;;;;;;15.65;2.85;;;6.70;99.90;;;;;;5005383;28;20412;-62
2024/02/04 00:20:06;;;;;;;11.25;1.77;;;6.70;99.90;;;;;;5005596;28;20049;-62
2024/02/04 00:22:35;;;;;;;20.65;2.63;;;6.60;99.90;;;;;;5005539;28;20050;-62
2024/02/04 00:25:04;;;;;;;12.02;1.80;;;6.70;99.90;;;;;;5004911;28;20042;-62
2024/02/04 00:27:31;;;;;;;13.88;2.33;;;6.70;99.90;;;;;;5003589;28;20057;-62
2024/02/04 00:29:58;;;;;;;5.90;1.60;;;6.60;99.90;;;;;;5001515;28;20050;-62
2024/02/04 00:32:24;;;;;;;14.40;3.15;;;6.60;99.90;;;;;;5005303;28;20045;-62
2024/02/04 00:34:50;;;;;;;8.27;1.42;;;6.70;99.90;;;;;;5004880;28;20065;-62
2024/02/04 00:37:15;;;;;;;7.05;2.28;;;6.60;99.90;;;;;;5004766;28;20062;-62
2024/02/04 00:39:41;;;;;;;16.95;3.22;;;6.70;99.90;;;;;;5007266;28;20041;-62
2024/02/04 00:42:07;;;;;;;17.95;2.78;;;6.70;99.90;;;;;;5004644;28;20117;-62
2024/02/04 00:44:33;;;;;;;11.77;2.25;;;6.70;99.90;;;;;;5004669;28;20046;-62
2024/02/04 00:46:58;;;;;;;12.15;2.80;;;6.70;99.90;;;;;;5006212;28;20558;-62
2024/02/04 00:49:30;;;;;;;11.20;2.53;;;6.70;99.90;;;;;;5004825;28;20868;-62
2024/02/04 00:51:55;;;;;;;29.52;3.70;;;6.70;99.90;;;;;;5005177;28;20081;-62
2024/02/04 00:54:21;;;;;;;11.95;2.22;;;6.60;99.90;;;;;;5004785;28;20052;-61
2024/02/04 00:56:47;;;;;;;11.07;2.80;;;6.60;99.90;;;;;;5002653;28;20053;-62
2024/02/04 00:59:13;;;;;;;18.95;2.92;;;6.60;99.90;;;;;;4995642;28;20117;-62
2024/02/04 01:01:38;;;;;;;3.70;0.95;;;6.60;99.90;;;;;;5001724;28;20053;-62
2024/02/04 01:04:04;;;;;;;18.63;2.88;;;6.60;99.90;;;;;;5012898;28;20536;-62
2024/02/04 01:06:30;;;;;;;12.88;2.33;;;6.60;99.90;;;;;;5003694;28;20052;-62
2024/02/04 01:08:56;;;;;;;16.85;3.65;;;6.60;99.90;;;;;;5004879;28;20500;-62
2024/02/04 01:11:22;;;;;;;11.05;2.45;;;6.50;99.90;;;;;;5003125;28;20077;-62
2024/02/04 01:13:48;;;;;;;18.77;2.80;;;6.60;99.90;;;;;;5010224;28;20124;-62
2024/02/04 01:16:14;;;;;;;18.17;2.00;;;6.50;99.90;;;;;;5006247;28;20049;-62
2024/02/04 01:18:40;;;;;;;7.43;1.42;;;6.60;99.90;;;;;;5008348;28;20439;-62
2024/02/04 01:21:06;;;;;;;5.22;1.50;;;6.60;99.90;;;;;;5009130;28;20054;-62
2024/02/04 01:23:31;;;;;;;14.73;2.10;;;6.50;99.90;;;;;;5003877;28;20072;-62
2024/02/04 01:25:57;;;;;;;12.35;1.88;;;6.60;99.90;;;;;;5004073;28;20053;-62
2024/02/04 01:28:23;;;;;;;13.00;1.88;;;6.50;99.90;;;;;;5005275;28;20049;-62
2024/02/04 01:30:48;;;;;;;13.80;1.25;;;6.50;99.90;;;;;;5010991;28;20520;-62
2024/02/04 01:33:14;;;;;;;8.82;1.30;;;6.50;99.90;;;;;;5003361;28;20057;-62
2024/02/04 01:35:40;;;;;;;15.85;2.35;;;6.50;99.90;;;;;;5004071;28;20149;-61
2024/02/04 01:38:06;;;;;;;16.48;2.10;;;6.50;99.90;;;;;;5002447;28;20534;-62
2024/02/04 01:40:31;;;;;;;15.18;1.90;;;6.50;99.90;;;;;;5004061;28;20080;-62
2024/02/04 01:42:57;;;;;;;4.68;1.08;;;6.50;99.90;;;;;;5009377;28;20499;-62
2024/02/04 01:45:24;;;;;;;14.20;1.45;;;6.50;99.90;;;;;;5003321;28;20053;-62
2024/02/04 01:47:50;;;;;;;15.20;1.67;;;6.40;99.90;;;;;;5004379;28;20062;-62
2024/02/04 01:50:17;;;;;;;2.10;0.30;;;6.40;99.90;;;;;;5003704;28;20183;-62
2024/02/04 01:52:44;;;;;;;11.05;1.48;;;6.40;99.90;;;;;;5005024;28;20057;-62
2024/02/04 01:55:11;;;;;;;20.65;2.58;;;6.30;99.90;;;;;;5003887;28;20050;-62
2024/02/04 01:57:37;;;;;;;8.48;1.30;;;6.30;99.90;;;;;;5001912;28;20099;-62
2024/02/04 02:00:08;;;;;;;11.15;1.80;;;6.30;99.90;;;;;;5004516;28;20967;-62
2024/02/04 02:02:39;;;;;;;8.32;1.13;;;6.30;99.90;;;;;;5004742;28;20103;-62
2024/02/04 02:05:05;;;;;;;14.13;2.22;;;6.20;99.90;;;;;;5004721;28;20519;-62
2024/02/04 02:07:31;;;;;;;21.73;2.55;;;6.20;99.90;;;;;;5005071;28;20107;-62
2024/02/04 02:09:57;;;;;;;14.73;1.48;;;6.20;99.90;;;;;;4985482;28;20053;-62
2024/02/04 02:12:31;;;;;;;12.77;1.65;;;6.20;99.90;;;;;;4987621;28;20441;-62
2024/02/04 02:15:06;;;;;;;15.95;1.77;;;6.20;99.90;;;;;;5003742;28;20053;-62
2024/02/04 02:17:48;;;;;;;4.90;1.38;;;6.10;99.90;;;;;;5000510;28;20054;-62
2024/02/04 02:20:21;;;;;;;2.72;0.75;;;6.20;99.90;;;;;;5003129;28;20061;-62
2024/02/04 02:23:01;;;;;;;10.55;1.83;;;6.20;99.90;;;;;;5003468;28;20048;-62
2024/02/04 02:25:27;;;;;;;2.15;0.77;;;6.20;99.90;;;;;;5003512;28;20136;-62
2024/02/04 02:27:53;;;;;;;10.95;1.38;;;6.10;99.90;;;;;;5001115;28;20157;-62
2024/02/04 02:30:19;;;;;;;10.57;1.70;;;6.10;99.90;;;;;;5006533;28;20128;-62
2024/02/04 02:32:48;;;;;;;10.50;1.45;;;6.10;99.90;;;;;;5003415;28;20058;-62
2024/02/04 02:35:17;;;;;;;8.18;1.17;;;6.10;99.90;;;;;;5003367;28;20372;-62
2024/02/04 02:38:09;;;;;;;9.20;1.77;;;6.10;99.90;;;;;;5002126;28;20558;-62
2024/02/04 02:40:48;;;;;;;10.50;1.55;;;6.10;99.90;;;;;;4988776;28;20472;-62
2024/02/04 02:43:15;;;;;;;2.78;0.88;;;6.00;99.90;;;;;;5004519;28;20146;-62
2024/02/04 02:45:45;;;;;;;9.57;0.95;;;6.00;99.90;;;;;;5012307;28;20057;-62
2024/02/04 02:48:11;;;;;;;10.30;1.88;;;6.00;99.90;;;;;;5002568;28;20766;-62
2024/02/04 02:50:38;;;;;;;16.63;1.90;;;6.00;99.90;;;;;;5002851;28;20056;-62
2024/02/04 02:53:04;;;;;;;17.00;2.28;;;6.00;99.90;;;;;;5002739;28;20527;-62
2024/02/04 02:55:30;;;;;;;15.18;1.80;;;6.00;99.90;;;;;;5002977;28;20567;-62
2024/02/04 02:57:56;;;;;;;8.63;1.38;;;6.00;99.90;;;;;;5001684;28;20132;-63
2024/02/04 03:00:22;;;;;;;8.40;1.25;;;6.00;99.90;;;;;;5003313;28;20132;-62
2024/02/04 03:02:48;;;;;;;4.40;1.20;;;6.00;99.90;;;;;;5002582;28;20069;-62
2024/02/04 03:05:16;;;;;;;9.05;1.48;;;6.00;99.90;;;;;;5005873;28;20046;-62
2024/02/04 03:07:42;;;;;;;7.45;1.02;;;6.00;99.90;;;;;;5001261;28;20125;-63
2024/02/04 03:10:09;;;;;;;10.70;1.27;;;6.00;99.90;;;;;;5002497;28;20129;-62
2024/02/04 03:12:34;;;;;;;6.97;0.77;;;6.00;99.90;;;;;;5000703;28;20050;-62
2024/02/04 03:15:00;;;;;;;7.55;1.05;;;6.00;99.90;;;;;;5002793;28;20042;-63
2024/02/04 03:17:26;;;;;;;9.68;1.02;;;6.00;99.90;;;;;;5002103;28;20053;-62
2024/02/04 03:19:54;;;;;;;12.75;2.92;;;6.00;99.90;;;;;;5002209;28;20042;-62
2024/02/04 03:22:21;;;;;;;19.98;1.80;;;6.00;99.90;;;;;;5003999;28;20041;-62
2024/02/04 03:24:50;;;;;;;7.03;1.17;;;6.00;99.90;;;;;;5010557;28;20049;-62
2024/02/04 03:27:20;;;;;;;10.05;1.77;;;6.00;99.90;;;;;;5003179;28;20038;-62
2024/02/04 03:32:40;;;;;;;10.98;1.92;;;5.90;99.90;;;;;;5026144;28;20157;-62
2024/02/04 03:35:06;;;;;;;17.17;3.17;;;6.00;99.90;;;;;;5004438;28;20515;-62
2024/02/04 03:37:31;;;;;;;21.10;3.17;;;6.00;99.90;;;;;;5021091;28;20272;-62
2024/02/04 03:39:57;;;;;;;11.23;1.45;;;5.90;99.90;;;;;;5026283;28;20041;-62
2024/02/04 03:42:23;;;;;;;7.20;1.77;;;5.90;99.90;;;;;;5002864;28;20057;-62
2024/02/04 03:44:49;;;;;;;5.03;0.70;;;5.90;99.90;;;;;;4991369;28;20139;-63
2024/02/04 03:47:15;;;;;;;11.63;1.60;;;6.00;99.90;;;;;;5000914;28;20076;-63
2024/02/04 03:49:41;;;;;;;9.70;1.38;;;6.00;99.90;;;;;;5015796;28;20049;-62
2024/02/04 03:52:06;;;;;;;6.93;0.85;;;6.00;99.90;;;;;;5013844;28;20385;-62
2024/02/04 03:54:32;;;;;;;2.00;0.50;;;6.00;99.90;;;;;;5021269;28;20391;-62
2024/02/04 03:56:58;;;;;;;17.40;2.17;;;6.00;99.90;;;;;;5023483;28;20149;-62
2024/02/04 03:59:25;;;;;;;17.45;1.80;;;6.00;99.90;;;;;;5013958;28;20068;-62
2024/02/04 04:01:53;;;;;;;7.70;1.20;;;6.00;99.90;;;;;;5003906;28;20059;-62
2024/02/04 04:04:19;;;;;;;6.82;2.10;;;6.00;99.90;;;;;;5024716;28;20051;-62
2024/02/04 04:06:45;;;;;;;9.90;1.40;;;6.00;99.90;;;;;;5004651;28;20438;-62
2024/02/04 04:09:11;;;;;;;8.00;1.35;;;6.00;99.90;;;;;;5004659;28;20056;-62
2024/02/04 04:11:37;;;;;;;3.55;0.77;;;6.10;99.90;;;;;;4980965;28;20053;-62
2024/02/04 04:14:03;;;;;;;10.80;2.35;;;6.20;99.90;;;;;;5025362;28;20064;-63
2024/02/04 04:16:28;;;;;;;6.75;1.45;;;6.10;99.90;;;;;;5021311;28;20049;-62
2024/02/04 04:18:54;;;;;;;10.90;1.45;;;6.20;99.90;;;;;;5024879;28;20211;-62
2024/02/04 04:21:20;;;;;;;8.82;1.52;;;6.20;99.90;;;;;;5029904;28;20365;-62
2024/02/04 04:23:46;;;;;;;2.30;0.80;;;6.20;99.90;;;;;;5024679;28;20056;-62
2024/02/04 04:26:12;;;;;;;10.18;1.38;;;6.20;99.90;;;;;;5023855;28;20045;-63
2024/02/04 04:28:38;;;;;;;17.20;2.45;;;6.20;99.90;;;;;;5021886;28;20078;-62
2024/02/04 04:31:04;;;;;;;4.68;1.38;;;6.20;99.90;;;;;;5031092;28;20048;-63
2024/02/04 04:33:30;;;;;;;4.50;0.73;;;6.30;99.90;;;;;;5023752;28;20192;-63
2024/02/04 04:35:56;;;;;;;10.20;1.25;;;6.30;99.90;;;;;;5026493;28;20136;-62
2024/02/04 04:38:21;;;;;;;2.28;1.23;;;6.30;99.90;;;;;;5023612;28;20184;-62
2024/02/04 04:40:47;;;;;;;7.97;1.00;;;6.30;99.90;;;;;;5028177;28;20079;-62
2024/02/04 04:43:13;;;;;;;23.45;2.58;;;6.20;99.90;;;;;;5003265;28;20499;-63
2024/02/04 04:45:39;;;;;;;3.25;0.95;;;6.30;99.90;;;;;;5024558;28;20111;-62
2024/02/04 04:48:07;;;;;;;14.23;1.88;;;6.30;99.90;;;;;;5023701;28;20374;-63
2024/02/04 04:50:33;;;;;;;10.77;1.83;;;6.30;99.90;;;;;;5007043;28;20697;-62
2024/02/04 04:52:59;;;;;;;7.68;0.82;;;6.30;99.90;;;;;;5024100;28;20125;-62
2024/02/04 04:55:24;;;;;;;12.15;1.67;;;6.30;99.90;;;;;;5022428;28;20096;-63
2024/02/04 04:57:52;;;;;;;4.00;1.08;;;6.30;99.90;;;;;;5003972;28;20053;-62
2024/02/04 05:00:18;;;;;;;11.50;1.80;;;6.30;99.90;;;;;;5021014;28;20041;-62
2024/02/04 05:02:44;;;;;;;0.40;0.38;;;6.30;99.90;;;;;;5027525;28;20387;-63
2024/02/04 05:05:13;;;;;;;20.73;2.92;;;6.30;99.90;;;;;;5018338;28;20047;-62
2024/02/04 05:07:39;;;;;;;10.48;1.42;;;6.40;99.90;;;;;;5007284;28;20140;-62
2024/02/04 05:10:05;;;;;;;20.92;2.03;;;6.30;99.90;;;;;;5006863;28;20160;-62
2024/02/04 05:12:32;;;;;;;12.45;1.45;;;6.30;99.90;;;;;;5003736;28;20072;-62
2024/02/04 05:14:59;;;;;;;11.60;2.20;;;6.40;99.90;;;;;;5010829;28;20452;-63
2024/02/04 05:17:26;;;;;;;4.43;0.82;;;6.40;99.90;;;;;;5023512;28;20095;-63
2024/02/04 05:19:52;;;;;;;5.28;1.13;;;6.30;99.90;;;;;;5028103;28;20041;-62
2024/02/04 05:22:17;;;;;;;11.05;1.30;;;6.30;99.90;;;;;;5028872;28;20056;-63
2024/02/04 05:24:43;;;;;;;16.10;1.73;;;6.30;99.90;;;;;;5002863;28;20049;-62
2024/02/04 05:27:09;;;;;;;24.83;3.22;;;6.40;99.90;;;;;;5024596;28;20038;-62
2024/02/04 05:29:34;;;;;;;5.72;0.60;;;6.40;99.90;;;;;;5032708;28;20847;-63
2024/02/04 05:32:00;;;;;;;1.42;0.73;;;6.40;99.90;;;;;;4981256;28;20050;-62
2024/02/04 05:34:26;;;;;;;7.03;0.77;;;6.30;99.90;;;;;;4991682;28;20042;-62
2024/02/04 05:36:52;;;;;;;8.77;1.48;;;6.40;99.90;;;;;;4977291;28;20061;-62
2024/02/04 05:39:18;;;;;;;16.35;2.45;;;6.40;99.90;;;;;;4986482;28;20053;-63
2024/02/04 05:41:44;;;;;;;3.88;1.23;;;6.40;99.90;;;;;;4983954;28;20166;-62
2024/02/04 05:44:09;;;;;;;14.25;1.67;;;6.40;99.90;;;;;;4982766;28;20034;-63
2024/02/04 05:46:36;;;;;;;11.85;2.13;;;6.40;99.90;;;;;;4987782;28;20326;-62
2024/02/04 05:49:02;;;;;;;15.88;1.58;;;6.50;99.90;;;;;;4984629;28;20117;-62
2024/02/04 05:51:28;;;;;;;2.42;0.98;;;6.40;99.90;;;;;;4983893;28;20069;-62
2024/02/04 05:53:55;;;;;;;16.27;2.35;;;6.50;99.90;;;;;;4977068;28;20493;-62
2024/02/04 05:56:21;;;;;;;6.15;0.98;;;6.60;99.90;;;;;;4978142;28;20646;-63
2024/02/04 05:58:48;;;;;;;14.32;2.42;;;6.50;99.90;;;;;;4984031;28;20050;-63
2024/02/04 06:01:15;;;;;;;8.23;1.25;;;6.50;99.90;;;;;;4991320;28;20320;-63
2024/02/04 06:03:43;;;;;;;4.68;1.15;;;6.60;99.90;;;;;;4985421;28;20030;-62
2024/02/04 06:06:16;;;;;;;2.28;0.70;;;6.50;99.90;;;;;;4984673;28;20053;-62
2024/02/04 06:08:42;;;;;;;11.35;0.93;;;6.50;99.90;;;;;;4983570;28;20042;-62
2024/02/04 06:11:14;;;;;;;8.70;1.27;;;6.50;99.90;;;;;;4988680;28;20108;-62
2024/02/04 06:13:41;;;;;;;16.58;2.10;;;6.50;99.90;;;;;;4986753;28;20049;-62
2024/02/04 06:16:11;;;;;;;3.50;0.65;;;6.50;99.90;;;;;;4985148;28;20400;-63
2024/02/04 06:18:40;;;;;;;4.68;1.17;;;6.60;99.90;;;;;;4983588;28;20055;-63
2024/02/04 06:21:07;;;;;;;3.75;1.38;;;6.60;99.90;;;;;;4990680;28;20708;-62
2024/02/04 06:23:33;;;;;;;6.32;1.25;;;6.50;99.90;;;;;;4987867;28;20120;-62
2024/02/04 06:25:59;;;;;;;4.13;0.98;;;6.60;99.90;;;;;;4988577;28;20124;-62
2024/02/04 06:28:25;;;;;;;6.07;0.75;;;6.60;99.90;;;;;;4984573;28;20042;-62
2024/02/04 06:30:51;;;;;;;6.72;1.58;;;6.60;99.90;;;;;;4982317;28;20513;-63
2024/02/04 06:33:17;;;;;;;20.10;1.75;;;6.60;99.90;;;;;;4978293;28;20061;-63
2024/02/04 06:35:43;;;;;;;5.00;0.95;;;6.60;99.90;;;;;;4985252;28;20112;-62
2024/02/04 06:38:09;;;;;;;16.20;2.22;;;6.60;99.90;;;;;;4987173;28;20046;-62
2024/02/04 06:40:34;;;;;;;10.57;1.35;;;6.60;99.90;;;;;;4981287;28;20476;-62
2024/02/04 06:43:00;;;;;;;5.50;0.50;;;6.60;99.90;;;;;;4984365;28;20038;-62
2024/02/04 06:45:26;;;;;;;5.28;1.05;;;6.60;99.90;;;;;;4965895;28;20366;-62
2024/02/04 06:47:51;;;;;;;4.43;1.13;;;6.70;99.90;;;;;;4968750;28;20096;-62
2024/02/04 06:50:17;;;;;;;0.60;0.30;;;6.70;99.90;;;;;;4982046;28;20042;-62
2024/02/04 06:52:43;;;;;;;19.67;2.28;;;6.70;99.90;;;;;;4981569;28;20053;-62
2024/02/04 06:55:09;;;;;;;5.30;1.27;;;6.80;99.90;;;;;;4991471;28;20167;-63
2024/02/04 06:57:35;;;;;;;5.07;0.80;;;6.70;99.90;;;;;;4953298;28;20058;-63
2024/02/04 07:00:01;;;;;;;11.43;1.70;;;6.80;99.90;;;;;;4986580;28;20069;-62
2024/02/04 07:02:27;;;;;;;5.07;1.27;;;6.80;99.90;;;;;;4965715;28;20050;-62
2024/02/04 07:04:53;;;;;;;8.45;1.67;;;6.70;99.90;;;;;;4983407;28;20525;-63
2024/02/04 07:07:19;;;;;;;2.63;0.77;;;6.80;99.90;;;;;;4983665;28;20077;-62
2024/02/04 07:09:44;;;;;;;1.20;0.95;;;6.80;99.90;;;;;;4981730;28;20043;-62
2024/02/04 07:12:10;;;;;;;8.32;1.60;;;6.80;99.90;;;;;;4982424;28;20057;-63
2024/02/04 07:14:36;;;;;;;3.22;0.88;;;6.80;99.90;;;;;;4983196;28;20432;-63
2024/02/04 07:17:01;;;;;;;6.72;0.95;;;6.80;99.90;;;;;;4984779;28;20081;-62
2024/02/04 07:19:27;;;;;;;14.65;2.33;;;6.80;99.90;;;;;;4986853;28;20149;-62
2024/02/04 07:21:53;;;;;;;6.22;1.35;;;6.80;99.90;;;;;;4983631;28;20070;-62
2024/02/04 07:24:19;;;;;;;6.78;0.93;;;6.90;99.90;;;;;;4983997;28;20396;-62
2024/02/04 07:26:45;;;;;;;17.92;3.00;;;6.90;99.90;;;;;;4982481;28;20053;-63
2024/02/04 07:29:13;;;;;;;16.15;2.28;;;6.90;99.90;;;;;;4993228;28;20045;-62
2024/02/04 07:31:39;;;;;;;3.55;1.48;;;6.90;99.90;;;;;;4987997;28;20077;-63
2024/02/04 07:34:05;;;;;;;4.78;0.77;;;7.00;99.90;;;;;;5022161;28;20797;-63
2024/02/04 07:36:31;;;;;;;10.23;1.20;;;7.00;99.90;;;;;;5021611;28;20425;-63
2024/02/04 07:38:57;;;;;;;13.25;1.27;;;7.00;99.90;;;;;;5022270;28;20390;-62
2024/02/04 07:41:23;;;;;;;9.48;1.55;;;7.00;99.90;;;;;;5014897;28;20040;-62
2024/02/04 07:43:50;;;;;;;13.15;2.10;;;7.00;99.90;;;;;;5033319;28;20041;-62
2024/02/04 07:46:16;;;;;;;21.20;3.70;;;7.00;99.90;;;;;;4990582;28;20045;-62
2024/02/04 07:48:42;;;;;;;6.28;1.48;;;7.00;99.90;;;;;;5019791;28;20046;-62
2024/02/04 07:51:08;;;;;;;9.20;1.20;;;7.10;99.90;;;;;;5022791;28;20127;-62
2024/02/04 07:53:36;;;;;;;15.13;1.90;;;7.10;99.90;;;;;;5002584;28;20061;-62
2024/02/04 07:56:03;;;;;;;12.00;2.17;;;7.10;99.90;;;;;;5009851;28;20525;-62
2024/02/04 07:58:29;;;;;;;4.32;1.13;;;7.20;99.90;;;;;;5022875;28;20476;-63
2024/02/04 08:00:55;;;;;;;14.10;2.35;;;7.10;99.90;;;;;;5019035;28;20891;-63
2024/02/04 08:03:21;;;;;;;9.75;1.55;;;7.20;99.90;;;;;;5006286;28;20037;-62
2024/02/04 08:05:47;;;;;;;7.03;1.20;;;7.20;99.90;;;;;;5021581;28;20520;-63
2024/02/04 08:08:13;;;;;;;3.30;0.98;;;7.20;99.90;;;;;;5022154;28;20045;-63
2024/02/04 08:10:38;;;;;;;12.02;2.08;;;7.20;99.90;;;;;;5003403;28;20140;-62
2024/02/04 08:13:04;;;;;;;12.32;2.28;;;7.20;99.90;;;;;;5021856;28;20033;-62
2024/02/04 08:15:30;;;;;;;16.05;2.03;;;7.20;99.90;;;;;;5020888;28;20037;-62
2024/02/04 08:17:55;;;;;;;6.78;1.13;;;7.20;99.90;;;;;;5004243;28;20049;-62
2024/02/04 08:20:21;;;;;;;5.70;1.60;;;7.30;99.90;;;;;;5002885;28;20403;-63
2024/02/04 08:22:48;;;;;;;12.10;1.77;;;7.30;99.90;;;;;;4987377;28;20076;-62
2024/02/04 08:25:14;;;;;;;1.58;1.08;;;7.30;99.90;;;;;;5004951;28;20414;-63
2024/02/04 08:27:40;;;;;;;1.75;0.80;;;7.40;99.90;;;;;;5020715;28;20037;-63
2024/02/04 08:30:06;;;;;;;11.35;1.48;;;7.40;99.90;;;;;;5023416;28;20539;-62
2024/02/04 08:32:32;;;;;;;10.32;1.17;;;7.50;99.90;;;;;;5019810;28;20053;-63
2024/02/04 08:34:58;;;;;;;5.85;1.17;;;7.50;99.90;;;;;;5022117;28;20049;-62
2024/02/04 08:37:23;;;;;;;5.43;1.48;;;7.50;99.90;;;;;;5024738;28;20490;-62
2024/02/04 08:39:49;;;;;;;6.50;1.33;;;7.50;99.90;;;;;;5019297;28;20091;-62
2024/02/04 08:42:15;;;;;;;3.13;1.13;;;7.50;99.90;;;;;;5007740;28;20141;-62
2024/02/04 08:44:41;;;;;;;23.20;3.58;;;7.50;99.90;;;;;;5031092;28;20434;-62
2024/02/04 08:47:10;;;;;;;16.98;2.33;;;7.60;99.90;;;;;;5012705;28;20384;-63
2024/02/04 08:49:36;;;;;;;4.22;1.42;;;7.60;99.90;;;;;;5006744;28;20351;-63
2024/02/04 08:52:03;;;;;;;9.05;1.92;;;7.60;99.90;;;;;;5026195;28;20045;-62
2024/02/04 08:54:29;;;;;;;6.30;1.15;;;7.70;99.90;;;;;;5005987;28;20052;-62
2024/02/04 08:56:55;;;;;;;19.60;2.65;;;7.70;99.90;;;;;;5006410;28;20053;-62
2024/02/04 08:59:21;;;;;;;10.00;1.85;;;7.70;99.90;;;;;;5028374;28;20037;-62
2024/02/04 09:01:46;;;;;;;10.10;2.63;;;7.70;99.90;;;;;;5026711;28;20523;-62
2024/02/04 09:04:12;;;;;;;9.38;1.80;;;7.70;99.90;;;;;;5023865;28;20127;-62
2024/02/04 09:06:38;;;;;;;3.47;0.63;;;7.80;99.90;;;;;;5028660;28;20153;-62
2024/02/04 09:09:04;;;;;;;9.30;1.52;;;7.80;99.90;;;;;;5003169;28;20146;-62
2024/02/04 09:11:30;;;;;;;12.02;1.67;;;7.80;99.90;;;;;;5017568;28;20045;-63
2024/02/04 09:13:56;;;;;;;9.40;1.70;;;7.80;99.90;;;;;;5025648;28;20042;-62
2024/02/04 09:16:21;;;;;;;4.43;1.38;;;7.80;99.90;;;;;;5006156;28;20053;-62
2024/02/04 09:18:47;;;;;;;11.65;1.67;;;7.80;99.90;;;;;;5022888;28;20115;-62
2024/02/04 09:21:13;;;;;;;3.47;1.08;;;7.80;99.90;;;;;;5033912;28;20475;-63
2024/02/04 09:23:39;;;;;;;11.73;1.75;;;7.90;99.90;;;;;;5007063;28;20061;-62
2024/02/04 09:26:05;;;;;;;3.85;0.80;;;7.90;99.90;;;;;;5021627;28;20356;-62
2024/02/04 09:28:31;;;;;;;12.40;2.58;;;7.90;99.90;;;;;;5023482;28;20432;-62
2024/02/04 09:30:57;;;;;;;8.63;1.55;;;7.90;99.90;;;;;;5025755;28;20088;-62
2024/02/04 09:33:23;;;;;;;22.20;2.72;;;8.00;99.90;;;;;;5021443;28;20419;-62
2024/02/04 09:35:49;;;;;;;5.78;0.82;;;8.00;99.90;;;;;;5023448;28;20049;-62
2024/02/04 09:38:15;;;;;;;12.20;2.40;;;8.00;99.90;;;;;;5026698;28;20033;-63
2024/02/04 09:40:41;;;;;;;6.13;0.98;;;8.10;99.90;;;;;;5006450;28;20175;-62
2024/02/04 09:43:08;;;;;;;23.48;3.85;;;8.10;99.90;;;;;;5007590;28;20790;-62
2024/02/04 09:45:35;;;;;;;3.38;1.15;;;8.00;99.90;;;;;;5021473;28;20092;-63
2024/02/04 09:48:02;;;;;;;16.05;2.00;;;8.20;99.90;;;;;;5022614;28;20038;-62
2024/02/04 09:50:28;;;;;;;8.57;2.60;;;8.20;99.90;;;;;;5005277;28;20128;-62
2024/02/04 09:52:59;;;;;;;20.27;2.75;;;8.30;99.90;;;;;;5022402;28;20480;-62
2024/02/04 09:55:26;;;;;;;14.20;2.90;;;8.30;99.90;;;;;;5003875;28;20108;-62
2024/02/04 09:57:52;;;;;;;26.00;4.28;;;8.30;99.90;;;;;;5021473;28;20049;-62
2024/02/04 10:00:20;;;;;;;10.85;1.42;;;8.30;99.90;;;;;;5022347;28;20525;-62
2024/02/04 10:02:47;;;;;;;12.60;1.75;;;8.40;99.90;;;;;;5004137;28;20041;-62
2024/02/04 10:05:14;;;;;;;19.65;3.83;;;8.30;99.90;;;;;;5025186;28;20135;-62
2024/02/04 10:07:40;;;;;;;6.72;1.40;;;8.40;99.90;;;;;;5021239;28;20053;-62
2024/02/04 10:10:07;;;;;;;23.67;3.35;;;8.40;99.90;;;;;;5022364;28;20041;-63
2024/02/04 10:12:35;;;;;;;12.75;1.45;;;8.40;99.90;;;;;;5022044;28;20049;-62
2024/02/04 10:15:05;;;;;;;10.90;2.13;;;8.40;99.90;;;;;;5024265;28;20099;-62
2024/02/04 10:17:31;;;;;;;15.93;2.08;;;8.40;99.90;;;;;;5010057;28;20586;-62
2024/02/04 10:19:57;;;;;;;11.00;1.88;;;8.40;99.90;;;;;;5019918;28;20029;-63
2024/02/04 10:22:26;;;;;;;3.13;1.05;;;8.40;99.90;;;;;;5005635;28;20053;-62
2024/02/04 10:24:52;;;;;;;3.65;1.33;;;8.50;99.90;;;;;;5019507;28;20045;-62
2024/02/04 10:27:19;;;;;;;15.73;2.33;;;8.50;99.90;;;;;;5007327;28;20574;-62
2024/02/04 10:29:44;;;;;;;5.53;1.90;;;8.50;99.90;;;;;;5029911;28;20047;-62
2024/02/04 10:32:10;;;;;;;2.20;1.00;;;8.50;99.90;;;;;;5025015;28;20045;-62
2024/02/04 10:34:39;;;;;;;9.57;2.17;;;8.60;99.90;;;;;;5024094;28;20041;-62
2024/02/04 10:37:05;;;;;;;11.70;2.00;;;8.60;99.90;;;;;;5034768;28;20041;-62
2024/02/04 10:39:31;;;;;;;5.60;1.02;;;8.60;99.90;;;;;;5012776;28;20124;-62
2024/02/04 10:42:05;;;;;;;1.50;0.77;;;8.70;99.90;;;;;;5002600;28;20234;-62
2024/02/04 10:44:35;;;;;;;15.75;1.85;;;8.70;99.90;;;;;;5010307;28;20045;-63
2024/02/04 10:47:04;;;;;;;;;;;8.60;99.90;;;;;;5026853;28;20052;-62
2024/02/04 10:49:32;;;;;;;3.60;1.10;;;8.70;99.90;;;;;;5021409;28;19999;-62
2024/02/04 10:51:59;;;;;;;3.50;0.88;;;8.60;99.90;;;;;;5022147;28;20052;-62
2024/02/04 10:54:27;;;;;;;8.95;1.77;;;8.70;99.90;;;;;;5001676;28;20407;-62
2024/02/04 10:57:03;;;;;;;13.38;2.45;;;8.70;99.90;;;;;;5026047;28;20049;-63
2024/02/04 10:59:32;;;;;;;10.88;1.73;;;8.70;99.90;;;;;;5022072;28;20142;-62
2024/02/04 11:01:58;;;;;;;10.02;1.95;;;8.70;99.90;;;;;;5022023;28;20048;-62
2024/02/04 11:04:24;;;;;;;11.15;2.72;;;8.70;99.90;;;;;;5003176;28;20057;-62
2024/02/04 11:06:52;;;;;;;13.88;2.45;;;8.70;99.90;;;;;;5018637;28;20530;-62
2024/02/04 11:09:19;;;;;;;19.92;2.53;;;8.80;99.90;;;;;;5021412;28;20861;-62
2024/02/04 11:11:46;;;;;;;4.10;0.98;;;8.70;99.90;;;;;;5019964;28;20064;-62
2024/02/04 11:14:16;;;;;;;10.93;2.08;;;8.80;99.90;;;;;;5017998;28;20117;-62
2024/02/04 11:16:45;;;;;;;6.60;1.60;;;8.70;99.90;;;;;;5020149;28;20128;-62
2024/02/04 11:19:48;;;;;;;16.00;2.72;;;8.80;99.90;;;;;;5002400;28;20132;-62
2024/02/04 11:22:52;;;;;;;6.05;1.17;;;8.80;99.90;;;;;;5013866;28;20385;-62
2024/02/04 11:25:37;;;;;;;11.52;2.30;;;8.80;99.90;;;;;;4996522;28;20414;-62
2024/02/04 11:28:03;;;;;;;8.15;2.13;;;8.90;99.90;;;;;;5003471;28;20053;-62
2024/02/04 11:30:33;;;;;;;7.20;1.63;;;8.90;99.90;;;;;;5020884;28;20081;-62
2024/02/04 11:33:11;;;;;;;13.65;2.67;;;8.90;99.90;;;;;;5018151;28;20868;-62
2024/02/04 11:35:37;;;;;;;16.35;2.60;;;8.90;99.90;;;;;;5017255;28;20061;-61
2024/02/04 11:38:03;;;;;;;18.00;3.45;;;8.90;99.90;;;;;;5020129;28;20424;-61
2024/02/04 11:40:37;;;;;;;21.20;2.55;;;8.90;99.90;;;;;;5019114;28;20533;-61
2024/02/04 11:43:14;;;;;;;8.90;2.05;;;8.90;99.90;;;;;;5002683;28;20061;-62
2024/02/04 11:45:43;;;;;;;7.30;1.73;;;8.80;99.90;;;;;;4985724;28;20482;-62
2024/02/04 11:48:10;;;;;;;18.30;3.70;;;8.80;99.90;;;;;;5006349;28;20049;-62
2024/02/04 11:50:37;;;;;;;6.07;0.90;;;8.80;99.90;;;;;;5018052;28;20136;-62
2024/02/04 11:53:11;;;;;;;24.23;2.90;;;8.80;99.90;;;;;;5021238;28;20053;-62
2024/02/04 11:55:40;;;;;;;14.00;2.72;;;8.80;99.90;;;;;;5018141;28;20037;-62
2024/02/04 11:58:07;;;;;;;8.57;1.77;;;8.80;99.90;;;;;;5026057;28;20179;-62
2024/02/04 12:00:34;;;;;;;20.40;3.05;;;8.80;99.90;;;;;;5021707;28;20298;-62
2024/02/04 12:03:02;;;;;;;9.05;1.55;;;8.80;99.90;;;;;;5018608;28;20051;-62
2024/02/04 12:05:29;;;;;;;10.60;1.98;;;8.80;99.90;;;;;;5021568;28;20072;-61
2024/02/04 12:07:54;;;;;;;18.70;2.67;;;8.80;99.90;;;;;;5001982;28;20050;-62
2024/02/04 12:10:21;;;;;;;17.83;4.18;;;8.90;99.90;;;;;;5021838;28;20052;-62
2024/02/04 12:12:48;;;;;;;13.00;2.55;;;8.90;99.90;;;;;;5007454;28;20463;-61
2024/02/04 12:15:14;;;;;;;11.85;1.45;;;8.80;99.90;;;;;;5025777;28;20050;-62
2024/02/04 12:17:40;;;;;;;16.88;2.35;;;8.90;99.90;;;;;;5030410;28;20056;-62
2024/02/04 12:20:06;;;;;;;16.27;2.55;;;8.90;99.90;;;;;;5026485;28;20050;-62
2024/02/04 12:22:33;;;;;;;7.90;1.35;;;8.90;99.90;;;;;;5001664;28;20052;-62
2024/02/04 12:24:59;;;;;;;15.57;2.50;;;8.90;99.90;;;;;;5004270;28;20110;-62
2024/02/04 12:27:26;;;;;;;14.82;2.13;;;8.90;99.90;;;;;;5005156;28;20049;-62
2024/02/04 12:29:59;;;;;;;16.67;2.38;;;8.90;99.90;;;;;;5028944;28;20045;-62
2024/02/04 12:32:25;;;;;;;14.35;1.15;;;8.90;99.90;;;;;;5027613;28;20505;-62
2024/02/04 12:34:54;;;;;;;3.55;0.85;;;8.90;99.90;;;;;;5024650;28;20480;-62
2024/02/04 12:37:20;;;;;;;14.60;2.38;;;8.90;99.90;;;;;;5023597;28;20383;-62
2024/02/04 12:39:46;;;;;;;11.70;2.10;;;8.90;99.90;;;;;;5023704;28;20116;-62
2024/02/04 12:42:21;;;;;;;21.48;3.20;;;8.90;99.90;;;;;;5022109;28;20081;-62
2024/02/04 12:44:52;;;;;;;5.78;1.58;;;8.90;99.90;;;;;;5012014;28;20065;-62
2024/02/04 12:47:20;;;;;;;10.38;1.58;;;8.90;99.90;;;;;;5023173;28;20045;-62
2024/02/04 12:49:47;;;;;;;12.27;1.75;;;8.90;99.90;;;;;;5001730;28;20046;-62
2024/02/04 12:52:12;;;;;;;7.28;1.02;;;8.90;99.90;;;;;;5011629;28;20075;-62
2024/02/04 12:54:43;;;;;;;18.15;2.92;;;8.90;99.90;;;;;;5019342;28;20493;-61